createdAt,value
2022-09-06T00:00:09.474Z,57.90
2022-09-06T00:02:42.104Z,58.10
2022-09-06T00:05:11.243Z,58.30
2022-09-06T00:07:39.606Z,59.00
2022-09-06T00:10:08.372Z,58.60
2022-09-06T00:12:36.656Z,58.60
2022-09-06T00:15:05.640Z,59.00
2022-09-06T00:17:34.179Z,59.30
2022-09-06T00:20:04.684Z,59.30
2022-09-06T00:22:32.945Z,59.30
2022-09-06T00:25:01.154Z,59.10
2022-09-06T00:27:29.418Z,59.10
2022-09-06T00:29:57.618Z,59.00
2022-09-06T00:32:25.871Z,58.90
2022-09-06T00:34:54.040Z,58.90
2022-09-06T00:37:23.565Z,59.00
2022-09-06T00:39:51.751Z,59.10
2022-09-06T00:42:19.968Z,59.00
2022-09-06T00:44:48.177Z,59.10
2022-09-06T00:47:16.454Z,59.10
2022-09-06T00:49:47.431Z,59.30
2022-09-06T00:52:17.109Z,59.20
2022-09-06T00:54:46.899Z,59.30
2022-09-06T00:57:15.652Z,59.50
2022-09-06T00:59:43.799Z,59.70
2022-09-06T01:02:12.255Z,59.60
2022-09-06T01:04:43.103Z,60.00
2022-09-06T01:07:16.445Z,60.50
2022-09-06T01:09:58.004Z,60.70
2022-09-06T01:12:35.593Z,60.90
2022-09-06T01:15:12.531Z,61.10
2022-09-06T01:17:51.530Z,61.40
2022-09-06T01:20:52.018Z,62.30
2022-09-06T01:24:14.502Z,62.90
2022-09-06T01:27:35.166Z,62.90
2022-09-06T01:30:08.944Z,62.90
2022-09-06T01:32:43.151Z,62.90
2022-09-06T01:35:18.748Z,63.10
2022-09-06T01:37:48.041Z,63.40
2022-09-06T01:40:16.409Z,63.70
2022-09-06T01:42:44.636Z,65.40
2022-09-06T01:45:16.365Z,68.20
2022-09-06T01:47:51.234Z,68.20
2022-09-06T01:50:59.791Z,66.60
2022-09-06T01:53:48.889Z,66.40
2022-09-06T01:56:23.526Z,66.10
2022-09-06T01:59:31.768Z,65.80
2022-09-06T02:02:05.076Z,65.80
2022-09-06T02:04:37.328Z,65.80
2022-09-06T02:07:10.600Z,65.50
2022-09-06T02:09:41.053Z,66.00
2022-09-06T02:12:09.646Z,67.90
2022-09-06T02:14:40.388Z,68.10
2022-09-06T02:17:10.693Z,67.70
2022-09-06T02:19:41.080Z,69.40
2022-09-06T02:22:11.438Z,68.30
2022-09-06T02:24:40.695Z,68.60
2022-09-06T02:27:08.982Z,69.40
2022-09-06T02:29:37.175Z,69.00
2022-09-06T02:32:31.615Z,69.10
2022-09-06T02:34:59.818Z,69.40
2022-09-06T02:37:28.008Z,69.10
2022-09-06T02:39:56.417Z,69.30
2022-09-06T02:42:24.757Z,69.20
2022-09-06T02:44:52.967Z,69.50
2022-09-06T02:47:21.158Z,69.70
2022-09-06T02:49:50.697Z,69.70
2022-09-06T02:52:18.824Z,70.30
2022-09-06T02:54:47.080Z,70.40
2022-09-06T02:57:15.256Z,71.00
2022-09-06T02:59:43.463Z,71.40
2022-09-06T03:02:11.619Z,70.90
2022-09-06T03:04:39.877Z,70.90
2022-09-06T03:07:09.420Z,71.30
2022-09-06T03:09:37.652Z,71.80
2022-09-06T03:12:06.238Z,71.50
2022-09-06T03:14:35.993Z,72.10
2022-09-06T03:17:04.560Z,72.10
2022-09-06T03:19:32.866Z,72.60
2022-09-06T03:22:01.102Z,73.10
2022-09-06T03:24:30.691Z,74.20
2022-09-06T03:26:58.906Z,73.80
2022-09-06T03:29:27.187Z,74.20
2022-09-06T03:31:55.421Z,74.60
2022-09-06T03:34:23.599Z,75.50
2022-09-06T03:36:51.744Z,76.60
2022-09-06T03:39:21.222Z,77.90
2022-09-06T03:41:50.830Z,78.50
2022-09-06T03:44:19.050Z,79.30
2022-09-06T03:46:47.312Z,80.50
2022-09-06T03:49:15.540Z,80.50
2022-09-06T03:51:43.706Z,80.60
2022-09-06T03:54:11.887Z,81.30
2022-09-06T03:56:40.136Z,81.60
2022-09-06T03:59:09.698Z,82.30
2022-09-06T04:01:37.927Z,82.40
2022-09-06T04:04:06.166Z,83.80
2022-09-06T04:06:34.331Z,83.30
2022-09-06T04:09:02.541Z,83.50
2022-09-06T04:11:30.706Z,83.40
2022-09-06T04:13:58.875Z,83.70
2022-09-06T04:16:28.550Z,83.80
2022-09-06T04:18:59.951Z,85.20
2022-09-06T04:21:28.195Z,84.40
2022-09-06T04:23:56.644Z,84.40
2022-09-06T04:26:24.861Z,84.50
2022-09-06T04:28:53.125Z,84.50
2022-09-06T04:31:21.310Z,84.70
2022-09-06T04:33:50.884Z,85.20
2022-09-06T04:36:19.024Z,85.70
2022-09-06T04:38:47.424Z,85.60
2022-09-06T04:41:17.191Z,86.40
2022-09-06T04:43:45.454Z,86.80
2022-09-06T04:46:20.060Z,86.30
2022-09-06T04:48:49.790Z,87.20
2022-09-06T04:51:17.998Z,87.20
2022-09-06T04:53:46.243Z,87.00
2022-09-06T04:56:17.012Z,87.20
2022-09-06T04:58:45.756Z,87.70
2022-09-06T05:01:14.024Z,87.50
2022-09-06T05:03:42.238Z,87.70
2022-09-06T05:06:13.125Z,87.90
2022-09-06T05:08:41.979Z,87.90
2022-09-06T05:11:10.953Z,88.00
2022-09-06T05:13:39.360Z,88.30
2022-09-06T05:16:08.988Z,88.50
2022-09-06T05:18:37.533Z,88.70
2022-09-06T05:21:06.158Z,89.10
2022-09-06T05:23:35.836Z,89.10
2022-09-06T05:26:04.377Z,89.70
2022-09-06T05:28:32.597Z,89.70
2022-09-06T05:31:08.876Z,89.90
2022-09-06T05:33:37.023Z,90.40
2022-09-06T05:36:05.955Z,90.20
2022-09-06T05:38:35.453Z,90.80
2022-09-06T05:41:03.647Z,90.50
2022-09-06T05:43:31.840Z,90.60
2022-09-06T05:46:00.214Z,90.70
2022-09-06T05:48:29.754Z,90.80
2022-09-06T05:51:03.671Z,91.00
2022-09-06T05:53:37.926Z,91.30
2022-09-06T05:56:06.682Z,91.50
2022-09-06T05:58:34.933Z,91.60
2022-09-06T06:01:16.213Z,92.30
2022-09-06T06:03:44.869Z,92.40
2022-09-06T06:06:13.043Z,92.40
2022-09-06T06:08:42.794Z,92.50
2022-09-06T06:11:11.011Z,92.20
2022-09-06T06:13:39.707Z,92.10
2022-09-06T06:16:08.416Z,92.00
2022-09-06T06:18:36.835Z,91.50
2022-09-06T06:21:10.275Z,90.80
2022-09-06T06:23:38.478Z,90.30
2022-09-06T06:26:08.802Z,89.90
2022-09-06T06:28:37.307Z,89.70
2022-09-06T06:31:05.914Z,89.50
2022-09-06T06:33:36.207Z,89.30
2022-09-06T06:36:06.867Z,89.90
2022-09-06T06:38:36.211Z,88.90
2022-09-06T06:41:06.803Z,89.10
2022-09-06T06:43:37.739Z,90.00
2022-09-06T06:46:06.496Z,90.10
2022-09-06T06:48:34.892Z,90.10
2022-09-06T06:51:03.406Z,89.70
2022-09-06T06:53:32.727Z,89.60
2022-09-06T06:56:01.354Z,89.80
2022-09-06T06:58:30.185Z,90.00
2022-09-06T07:00:59.942Z,90.10
2022-09-06T07:03:28.242Z,90.70
2022-09-06T07:06:12.655Z,91.20
2022-09-06T07:08:41.572Z,91.70
2022-09-06T07:11:10.927Z,91.60
2022-09-06T07:13:39.183Z,91.70
2022-09-06T07:16:15.077Z,91.80
2022-09-06T07:18:43.689Z,91.50
2022-09-06T07:24:09.012Z,90.70
2022-09-06T07:26:39.165Z,90.30
2022-09-06T07:29:08.357Z,90.30
2022-09-06T07:34:27.284Z,90.20
2022-09-06T07:36:55.690Z,90.40
2022-09-06T07:39:24.055Z,91.00
2022-09-06T07:41:52.341Z,91.20
2022-09-06T07:44:20.604Z,91.10
2022-09-06T07:46:52.680Z,91.20
2022-09-06T07:49:21.024Z,90.50
2022-09-06T07:51:49.318Z,90.20
2022-09-06T07:54:33.054Z,90.00
2022-09-06T07:57:01.233Z,89.40
2022-09-06T07:59:29.468Z,88.90
2022-09-06T08:01:59.153Z,88.20
2022-09-06T08:04:27.356Z,87.90
2022-09-06T08:09:45.397Z,87.50
2022-09-06T08:12:13.663Z,87.00
2022-09-06T08:14:41.904Z,86.90
2022-09-06T08:17:11.456Z,86.90
2022-09-06T08:19:52.202Z,87.30
2022-09-06T08:22:26.842Z,87.20
2022-09-06T08:24:55.059Z,87.10
2022-09-06T08:27:23.273Z,87.10
2022-09-06T08:29:51.486Z,87.20
2022-09-06T08:32:21.118Z,87.50
2022-09-06T08:34:49.641Z,88.70
2022-09-06T08:37:20.934Z,88.50
2022-09-06T08:39:51.343Z,88.80
2022-09-06T08:42:19.624Z,89.10
2022-09-06T08:44:58.293Z,90.10
2022-09-06T08:47:28.609Z,88.60
2022-09-06T08:49:57.916Z,88.00
2022-09-06T08:53:15.752Z,87.30
2022-09-06T08:55:42.445Z,85.30
2022-09-06T08:58:38.857Z,85.10
2022-09-06T09:01:09.573Z,83.10
2022-09-06T09:03:40.211Z,83.60
2022-09-06T09:06:10.100Z,84.10
2022-09-06T09:08:44.255Z,84.20
2022-09-06T09:11:16.395Z,82.20
2022-09-06T09:13:55.484Z,81.40
2022-09-06T09:16:24.330Z,80.80
2022-09-06T09:18:55.926Z,80.80
2022-09-06T09:21:30.493Z,79.40
2022-09-06T09:24:04.263Z,78.20
2022-09-06T09:26:36.690Z,79.10
2022-09-06T09:29:07.337Z,77.40
2022-09-06T09:31:37.261Z,76.10
2022-09-06T09:34:07.036Z,75.10
2022-09-06T09:36:35.201Z,74.80
2022-09-06T09:39:03.497Z,73.70
2022-09-06T09:41:33.601Z,73.30
2022-09-06T09:44:04.897Z,71.80
2022-09-06T09:46:34.024Z,72.20
2022-09-06T09:49:06.957Z,70.20
2022-09-06T09:51:38.190Z,71.00
2022-09-06T09:54:07.739Z,67.70
2022-09-06T09:56:43.447Z,66.10
2022-09-06T09:59:22.111Z,66.50
2022-09-06T10:01:50.600Z,65.40
2022-09-06T10:07:13.111Z,64.60
2022-09-06T10:09:42.379Z,62.00
2022-09-06T10:12:16.312Z,63.20
2022-09-06T10:14:45.840Z,63.80
2022-09-06T10:17:22.428Z,62.20
2022-09-06T10:19:51.923Z,61.60
2022-09-06T10:22:44.841Z,60.50
2022-09-06T10:25:39.511Z,58.40
2022-09-06T10:28:32.861Z,62.00
2022-09-06T10:31:38.016Z,59.50
2022-09-06T10:34:26.936Z,58.30
2022-09-06T10:37:04.056Z,57.70
2022-09-06T10:39:40.305Z,58.30
2022-09-06T10:42:14.703Z,57.60
2022-09-06T10:44:57.149Z,57.80
2022-09-06T10:47:27.967Z,58.40
2022-09-06T10:49:57.180Z,57.90
2022-09-06T10:52:29.096Z,58.20
2022-09-06T10:55:02.121Z,56.10
2022-09-06T11:00:22.589Z,55.60
2022-09-06T11:05:45.767Z,56.30
2022-09-06T11:11:18.133Z,55.30
2022-09-06T11:13:47.205Z,55.60
2022-09-06T11:16:19.200Z,54.80
2022-09-06T11:18:50.489Z,55.20
2022-09-06T11:21:50.917Z,56.20
2022-09-06T11:24:26.580Z,54.00
2022-09-06T11:27:01.931Z,54.70
2022-09-06T11:29:30.945Z,54.90
2022-09-06T11:32:16.620Z,54.80
2022-09-06T11:34:53.088Z,54.10
2022-09-06T11:37:26.867Z,51.90
2022-09-06T11:43:19.566Z,52.50
2022-09-06T11:45:50.364Z,51.60
2022-09-06T11:49:02.392Z,52.50
2022-09-06T11:51:38.848Z,52.80
2022-09-06T11:54:33.447Z,51.90
2022-09-06T11:57:11.751Z,52.40
2022-09-06T11:59:52.511Z,51.10
2022-09-06T12:02:38.338Z,52.60
2022-09-06T12:05:19.665Z,52.30
2022-09-06T12:08:24.762Z,52.20
2022-09-06T12:11:30.348Z,51.00
2022-09-06T12:14:03.918Z,49.40
2022-09-06T12:17:28.614Z,48.20
2022-09-06T12:20:07.117Z,47.50
2022-09-06T12:23:01.680Z,48.30
2022-09-06T12:25:56.350Z,48.30
2022-09-06T12:28:34.769Z,48.80
2022-09-06T12:31:25.485Z,48.70
2022-09-06T12:33:54.837Z,49.00
2022-09-06T12:36:29.793Z,47.10
2022-09-06T12:39:00.037Z,48.50
2022-09-06T12:41:29.679Z,47.60
2022-09-06T12:43:59.906Z,47.00
2022-09-06T12:46:29.849Z,48.00
2022-09-06T12:49:08.125Z,46.60
2022-09-06T12:51:48.837Z,46.80
2022-09-06T12:54:23.293Z,47.40
2022-09-06T12:56:54.609Z,48.30
2022-09-06T12:59:27.354Z,46.60
2022-09-06T13:02:06.359Z,47.20
2022-09-06T13:04:39.764Z,48.30
2022-09-06T13:07:14.188Z,48.20
2022-09-06T13:09:48.624Z,46.40
2022-09-06T13:12:27.917Z,45.50
2022-09-06T13:15:13.314Z,46.00
2022-09-06T13:17:43.373Z,45.90
2022-09-06T13:20:15.718Z,44.50
2022-09-06T13:22:46.135Z,46.50
2022-09-06T13:25:20.458Z,46.00
2022-09-06T13:27:51.045Z,46.00
2022-09-06T13:30:38.062Z,45.10
2022-09-06T13:33:08.571Z,45.80
2022-09-06T13:35:41.735Z,44.70
2022-09-06T13:38:31.888Z,45.10
2022-09-06T13:41:16.903Z,45.60
2022-09-06T13:43:48.177Z,45.10
2022-09-06T13:46:17.276Z,45.30
2022-09-06T13:48:47.374Z,43.60
2022-09-06T13:51:15.847Z,44.10
2022-09-06T13:53:44.358Z,43.10
2022-09-06T13:56:12.818Z,42.80
2022-09-06T13:58:41.612Z,42.60
2022-09-06T14:01:10.467Z,41.60
2022-09-06T14:03:41.938Z,42.60
2022-09-06T14:06:12.597Z,44.00
2022-09-06T14:09:05.769Z,42.30
2022-09-06T14:11:29.779Z,42.50
2022-09-06T14:13:58.402Z,43.60
2022-09-06T14:16:27.202Z,43.40
2022-09-06T14:18:56.009Z,43.90
2022-09-06T14:21:26.150Z,44.10
2022-09-06T14:23:54.662Z,44.40
2022-09-06T14:26:23.532Z,45.80
2022-09-06T14:28:52.005Z,44.90
2022-09-06T14:31:22.195Z,45.00
2022-09-06T14:33:51.081Z,45.20
2022-09-06T14:36:20.799Z,45.00
2022-09-06T14:38:52.212Z,46.10
2022-09-06T14:41:21.337Z,45.20
2022-09-06T14:43:51.477Z,45.60
2022-09-06T14:46:20.596Z,46.60
2022-09-06T14:48:49.169Z,46.00
2022-09-06T14:51:21.962Z,45.90
2022-09-06T14:53:54.011Z,46.30
2022-09-06T14:56:23.031Z,46.20
2022-09-06T14:58:51.708Z,45.70
2022-09-06T15:01:22.344Z,45.50
2022-09-06T15:03:53.346Z,46.60
2022-09-06T15:06:22.968Z,46.30
2022-09-06T15:08:58.422Z,47.20
2022-09-06T15:11:34.749Z,45.70
2022-09-06T15:14:04.902Z,47.90
2022-09-06T15:16:36.641Z,47.00
2022-09-06T15:19:05.453Z,47.20
2022-09-06T15:21:34.151Z,47.90
2022-09-06T15:24:09.730Z,47.70
2022-09-06T15:26:41.798Z,48.70
2022-09-06T15:29:10.977Z,48.70
2022-09-06T15:31:40.049Z,49.00
2022-09-06T15:34:09.062Z,49.60
2022-09-06T15:36:37.983Z,49.30
2022-09-06T15:39:07.995Z,50.60
2022-09-06T15:41:39.205Z,50.40
2022-09-06T15:44:10.464Z,52.30
2022-09-06T15:46:46.761Z,52.40
2022-09-06T15:49:17.589Z,53.20
2022-09-06T15:51:46.102Z,53.00
2022-09-06T15:54:17.426Z,52.60
2022-09-06T15:56:46.113Z,53.20
2022-09-06T15:59:17.428Z,53.60
2022-09-06T16:01:46.913Z,53.90
2022-09-06T16:04:15.345Z,54.20
2022-09-06T16:06:43.838Z,54.50
2022-09-06T16:09:14.493Z,54.30
2022-09-06T16:11:45.000Z,55.80
2022-09-06T16:14:19.311Z,56.30
2022-09-06T16:16:48.351Z,56.30
2022-09-06T16:19:17.291Z,55.90
2022-09-06T16:21:45.886Z,57.30
2022-09-06T16:24:14.919Z,57.50
2022-09-06T16:26:46.898Z,57.80
2022-09-06T16:29:16.940Z,58.50
2022-09-06T16:31:45.614Z,58.20
2022-09-06T16:34:14.326Z,58.00
2022-09-06T16:36:42.822Z,58.70
2022-09-06T16:39:11.769Z,57.80
2022-09-06T16:41:42.659Z,59.70
2022-09-06T16:44:16.279Z,60.70
2022-09-06T16:46:45.586Z,61.50
2022-09-06T16:49:15.260Z,60.70
2022-09-06T16:51:44.097Z,61.40
2022-09-06T16:54:13.085Z,63.50
2022-09-06T16:56:41.561Z,64.80
2022-09-06T16:59:10.552Z,65.20
2022-09-06T17:01:42.041Z,67.30
2022-09-06T17:04:10.643Z,68.40
2022-09-06T17:06:44.415Z,68.50
2022-09-06T17:09:14.071Z,68.70
2022-09-06T17:11:42.879Z,71.90
2022-09-06T17:14:15.497Z,72.90
2022-09-06T17:17:03.556Z,73.60
2022-09-06T17:19:33.736Z,75.10
2022-09-06T17:22:22.778Z,76.30
2022-09-06T17:24:57.762Z,79.90
2022-09-06T17:27:46.029Z,81.90
2022-09-06T17:30:23.080Z,80.10
2022-09-06T17:33:04.982Z,82.70
2022-09-06T17:35:34.639Z,83.90
2022-09-06T17:38:06.600Z,84.30
2022-09-06T17:40:36.567Z,88.50
2022-09-06T17:43:11.791Z,86.50
2022-09-06T17:45:44.472Z,88.40
2022-09-06T17:48:17.129Z,90.90
2022-09-06T17:50:47.814Z,90.30
2022-09-06T17:53:22.765Z,90.70
2022-09-06T17:55:58.851Z,90.90
2022-09-06T17:58:31.076Z,90.70
2022-09-06T18:01:06.041Z,90.80
2022-09-06T18:03:43.893Z,91.90
2022-09-06T18:06:14.991Z,91.90
2022-09-06T18:08:44.969Z,91.30
2022-09-06T18:11:15.037Z,90.90
2022-09-06T18:13:43.557Z,91.30
2022-09-06T18:16:12.629Z,90.30
2022-09-06T18:18:42.515Z,90.50
2022-09-06T18:21:10.976Z,91.00
2022-09-06T18:23:39.459Z,90.90
2022-09-06T18:26:08.898Z,90.80
2022-09-06T18:28:38.109Z,91.80
2022-09-06T18:31:08.236Z,90.70
2022-09-06T18:33:37.011Z,90.50
2022-09-06T18:36:07.864Z,90.00
2022-09-06T18:38:36.355Z,89.60
2022-09-06T18:41:06.488Z,88.70
2022-09-06T18:43:36.324Z,89.50
2022-09-06T18:46:05.840Z,89.50
2022-09-06T18:48:34.509Z,88.80
2022-09-06T18:51:06.951Z,87.60
2022-09-06T18:53:35.389Z,87.90
2022-09-06T18:56:04.158Z,86.90
2022-09-06T18:58:32.745Z,86.30
2022-09-06T19:01:03.540Z,85.70
2022-09-06T19:03:32.542Z,85.90
2022-09-06T19:06:03.928Z,85.30
2022-09-06T19:11:16.958Z,83.70
2022-09-06T19:13:46.866Z,86.50
2022-09-06T19:16:15.934Z,86.90
2022-09-06T19:18:44.336Z,86.40
2022-09-06T19:21:14.392Z,86.20
2022-09-06T19:23:46.049Z,87.20
2022-09-06T19:26:17.014Z,87.70
2022-09-06T19:28:49.575Z,86.10
2022-09-06T19:31:18.525Z,85.30
2022-09-06T19:33:48.216Z,84.30
2022-09-06T19:36:16.971Z,83.60
2022-09-06T19:39:02.929Z,82.00
2022-09-06T19:41:33.086Z,80.90
2022-09-06T19:44:01.748Z,81.30
2022-09-06T19:46:30.532Z,80.40
2022-09-06T19:49:00.512Z,79.60
2022-09-06T19:51:29.166Z,80.00
2022-09-06T19:54:00.063Z,79.20
2022-09-06T19:56:31.607Z,78.70
2022-09-06T19:59:01.316Z,81.00
2022-09-06T20:01:31.244Z,80.50
2022-09-06T20:04:00.179Z,80.20
2022-09-06T20:06:28.727Z,79.30
2022-09-06T20:08:59.411Z,78.60
2022-09-06T20:11:29.491Z,79.70
2022-09-06T20:13:57.962Z,79.80
2022-09-06T20:16:26.622Z,78.20
2022-09-06T20:18:56.050Z,78.30
2022-09-06T20:21:24.560Z,78.10
2022-09-06T20:23:54.084Z,77.70
2022-09-06T20:26:24.888Z,78.70
2022-09-06T20:28:56.701Z,78.50
2022-09-06T20:31:25.404Z,77.90
2022-09-06T20:33:53.977Z,77.30
2022-09-06T20:36:22.488Z,76.60
2022-09-06T20:38:50.936Z,76.70
2022-09-06T20:41:20.668Z,77.00
2022-09-06T20:43:53.647Z,78.30
2022-09-06T20:46:23.393Z,78.20
2022-09-06T20:48:53.346Z,78.20
2022-09-06T20:51:23.385Z,76.90
2022-09-06T20:53:54.987Z,77.90
2022-09-06T20:56:24.982Z,77.80
2022-09-06T20:58:56.467Z,77.50
2022-09-06T21:01:35.541Z,77.50
2022-09-06T21:04:08.365Z,75.90
2022-09-06T21:06:39.145Z,76.90
2022-09-06T21:09:09.853Z,76.80
2022-09-06T21:11:38.581Z,76.50
2022-09-06T21:14:09.742Z,75.40
2022-09-06T21:16:47.933Z,75.60
2022-09-06T21:19:36.661Z,75.40
2022-09-06T21:22:05.177Z,76.40
2022-09-06T21:24:50.646Z,76.50
2022-09-06T21:27:19.838Z,75.20
2022-09-06T21:29:49.805Z,75.30
2022-09-06T21:32:18.290Z,75.80
2022-09-06T21:34:56.335Z,75.80
2022-09-06T21:37:40.318Z,74.70
2022-09-06T21:40:11.688Z,76.20
2022-09-06T21:42:40.176Z,75.60
2022-09-06T21:45:11.420Z,75.60
2022-09-06T21:47:40.743Z,76.20
2022-09-06T21:50:33.592Z,76.90
2022-09-06T21:53:39.795Z,75.70
2022-09-06T22:03:23.253Z,77.10
2022-09-06T22:06:08.094Z,75.50
2022-09-06T22:09:13.969Z,74.90
2022-09-06T22:12:05.534Z,76.00
2022-09-06T22:14:59.751Z,77.80
2022-09-06T22:18:34.763Z,76.00
2022-09-06T22:21:08.427Z,76.60
2022-09-06T22:23:59.960Z,76.90
2022-09-06T22:27:03.839Z,77.90
2022-09-06T22:32:50.566Z,77.30
2022-09-06T22:36:08.465Z,76.50
2022-09-06T22:38:57.841Z,77.20
2022-09-06T22:41:31.667Z,77.90
2022-09-06T22:44:09.369Z,78.20
2022-09-06T22:47:00.036Z,77.40
2022-09-06T22:49:53.332Z,78.20
2022-09-06T22:52:29.504Z,79.80
2022-09-06T22:55:01.045Z,78.20
2022-09-06T22:57:29.456Z,78.20
2022-09-06T22:59:58.068Z,79.00
2022-09-06T23:02:26.717Z,79.00
2022-09-06T23:04:56.115Z,80.00
2022-09-06T23:07:24.642Z,79.70
2022-09-06T23:09:54.636Z,80.30
2022-09-06T23:12:23.136Z,79.60
2022-09-06T23:14:51.850Z,79.60
2022-09-06T23:17:20.220Z,81.20
2022-09-06T23:19:48.719Z,80.10
2022-09-06T23:22:17.257Z,80.90
2022-09-06T23:24:46.270Z,79.90
2022-09-06T23:27:16.178Z,81.30
2022-09-06T23:29:46.038Z,80.30
2022-09-06T23:32:14.494Z,80.60
2022-09-06T23:34:43.868Z,80.30
2022-09-06T23:37:15.203Z,79.80
2022-09-06T23:39:47.368Z,79.80
2022-09-06T23:42:19.099Z,80.10
2022-09-06T23:44:47.600Z,80.70
2022-09-06T23:47:16.025Z,82.30
2022-09-06T23:49:45.317Z,83.00
2022-09-06T23:52:13.735Z,82.60
2022-09-06T23:54:42.161Z,83.60
2022-09-06T23:57:10.601Z,82.30
2022-09-06T23:59:46.100Z,83.00
